createdAt,value
2023-06-10T12:34:11.389Z,26.20
2023-06-10T12:36:38.462Z,26.30
2023-06-10T12:39:05.462Z,26.70
2023-06-10T12:41:32.837Z,26.40
2023-06-10T12:43:59.649Z,26.50
2023-06-10T12:46:26.885Z,26.70
2023-06-10T12:48:55.434Z,26.50
2023-06-10T12:51:22.367Z,26.60
2023-06-10T12:53:49.233Z,26.90
2023-06-10T12:56:17.056Z,26.40
2023-06-10T12:58:45.965Z,26.50
2023-06-10T13:01:13.765Z,26.30
2023-06-10T13:03:41.678Z,26.40
2023-06-10T13:06:09.322Z,26.80
2023-06-10T13:08:36.485Z,27.00
2023-06-10T13:11:03.582Z,26.30
2023-06-10T13:13:30.450Z,26.60
2023-06-10T13:15:57.735Z,26.70
2023-06-10T13:18:25.100Z,26.80
2023-06-10T13:20:52.010Z,26.60
2023-06-10T13:23:19.044Z,26.70
2023-06-10T13:25:49.200Z,26.80
2023-06-10T13:28:16.241Z,26.80
2023-06-10T13:30:43.285Z,26.80
2023-06-10T13:33:12.736Z,26.90
2023-06-10T13:35:39.877Z,26.90
2023-06-10T13:38:08.273Z,27.10
2023-06-10T13:40:35.929Z,26.90
2023-06-10T13:43:03.655Z,27.00
2023-06-10T13:45:30.489Z,26.80
2023-06-10T13:47:57.758Z,26.80
2023-06-10T13:50:24.712Z,27.00
2023-06-10T13:52:51.599Z,27.20
2023-06-10T13:55:19.982Z,27.30
2023-06-10T13:57:46.817Z,27.40
2023-06-10T14:00:14.833Z,27.30
2023-06-10T14:02:41.707Z,27.10
2023-06-10T14:05:09.779Z,27.40
2023-06-10T14:07:38.341Z,27.80
2023-06-10T14:10:05.753Z,28.30
2023-06-10T14:12:32.611Z,27.90
2023-06-10T14:14:59.638Z,27.90
2023-06-10T14:17:26.470Z,27.80
2023-06-10T14:19:53.388Z,27.50
2023-06-10T14:22:20.497Z,27.50
2023-06-10T14:24:48.391Z,27.70
2023-06-10T14:27:15.402Z,27.70
2023-06-10T14:29:42.407Z,27.80
2023-06-10T14:32:10.000Z,27.60
2023-06-10T14:34:36.879Z,27.40
2023-06-10T14:37:08.843Z,27.80
2023-06-10T14:39:36.312Z,27.50
2023-06-10T14:42:03.771Z,27.50
2023-06-10T14:44:30.890Z,27.40
2023-06-10T14:46:57.785Z,27.50
2023-06-10T14:49:25.192Z,27.70
2023-06-10T14:51:52.248Z,27.80
2023-06-10T14:54:19.069Z,27.50
2023-06-10T14:56:45.900Z,27.70
2023-06-10T14:59:13.075Z,27.70
2023-06-10T15:01:39.937Z,27.50
2023-06-10T15:04:06.824Z,27.40
2023-06-10T15:06:33.916Z,27.50
2023-06-10T15:09:00.945Z,27.60
2023-06-10T15:11:28.205Z,27.70
2023-06-10T15:13:55.253Z,27.80
2023-06-10T15:16:22.656Z,27.70
2023-06-10T15:18:49.669Z,27.50
2023-06-10T15:21:16.724Z,27.70
2023-06-10T15:23:43.791Z,27.60
2023-06-10T15:26:10.748Z,27.40
2023-06-10T15:28:37.699Z,27.50
2023-06-10T15:31:04.518Z,27.80
2023-06-10T15:33:31.399Z,27.60
2023-06-10T15:35:58.464Z,27.70
2023-06-10T15:38:25.479Z,27.80
2023-06-10T15:40:52.267Z,27.90
2023-06-10T15:43:19.335Z,27.90
2023-06-10T15:45:46.204Z,27.80
2023-06-10T15:48:13.005Z,27.80
2023-06-10T15:50:39.921Z,27.70
2023-06-10T15:53:06.783Z,27.50
2023-06-10T15:55:33.592Z,27.50
2023-06-10T15:58:01.905Z,27.60
2023-06-10T16:00:28.698Z,27.50
2023-06-10T16:02:55.645Z,27.40
2023-06-10T16:05:22.855Z,27.30
2023-06-10T16:07:49.692Z,27.50
2023-06-10T16:10:16.722Z,27.60
2023-06-10T16:12:43.558Z,27.50
2023-06-10T16:15:11.175Z,27.50
2023-06-10T16:17:39.067Z,27.40
2023-06-10T16:20:07.865Z,27.50
2023-06-10T16:22:35.683Z,27.50
2023-06-10T16:25:02.891Z,27.60
2023-06-10T16:27:30.271Z,27.70
2023-06-10T16:29:57.229Z,27.90
2023-06-10T16:32:24.139Z,27.80
2023-06-10T16:34:51.142Z,28.00
2023-06-10T16:37:17.940Z,27.90
2023-06-10T16:39:45.030Z,27.80
2023-06-10T16:42:12.958Z,27.80
2023-06-10T16:44:39.728Z,27.60
2023-06-10T16:47:06.823Z,27.40
2023-06-10T16:49:35.412Z,27.50
2023-06-10T16:52:02.322Z,27.50
2023-06-10T16:54:29.312Z,27.40
2023-06-10T16:56:56.544Z,27.50
2023-06-10T16:59:23.352Z,27.40
2023-06-10T17:01:50.356Z,27.40
2023-06-10T17:04:17.626Z,27.50
2023-06-10T17:06:44.425Z,27.50
2023-06-10T17:09:11.395Z,27.30
2023-06-10T17:11:38.526Z,27.50
2023-06-10T17:14:05.918Z,27.50
2023-06-10T17:16:32.882Z,27.30
2023-06-10T17:19:00.020Z,27.20
2023-06-10T17:21:28.146Z,27.30
2023-06-10T17:23:55.927Z,27.30
2023-06-10T17:26:23.461Z,27.20
2023-06-10T17:28:50.352Z,27.20
2023-06-10T17:31:17.376Z,27.10
2023-06-10T17:33:44.522Z,27.20
2023-06-10T17:36:11.704Z,27.30
2023-06-10T17:38:38.586Z,27.20
2023-06-10T17:41:05.856Z,27.10
2023-06-10T17:43:32.751Z,26.90
2023-06-10T17:45:59.588Z,26.90
2023-06-10T17:48:26.698Z,27.00
2023-06-10T17:50:53.546Z,27.00
2023-06-10T17:53:20.422Z,26.90
2023-06-10T17:55:47.903Z,27.00
2023-06-10T17:58:15.112Z,27.00
2023-06-10T18:00:42.114Z,26.90
2023-06-10T18:03:09.274Z,26.80
2023-06-10T18:05:36.592Z,26.80
2023-06-10T18:08:03.605Z,26.70
2023-06-10T18:10:30.638Z,26.70
2023-06-10T18:12:58.297Z,26.70
2023-06-10T18:15:25.325Z,26.60
2023-06-10T18:17:52.422Z,26.50
2023-06-10T18:20:19.363Z,26.50
2023-06-10T18:22:46.250Z,26.40
2023-06-10T18:25:13.489Z,26.40
2023-06-10T18:27:40.454Z,26.30
2023-06-10T18:30:08.626Z,26.30
2023-06-10T18:32:35.711Z,26.30
2023-06-10T18:35:02.598Z,26.20
2023-06-10T18:37:30.363Z,26.20
2023-06-10T18:39:57.664Z,26.20
2023-06-10T18:42:24.599Z,26.10
2023-06-10T18:44:51.404Z,26.10
2023-06-10T18:47:18.325Z,26.10
2023-06-10T18:49:46.858Z,26.00
2023-06-10T18:52:14.852Z,25.90
2023-06-10T18:54:42.518Z,25.90
2023-06-10T18:57:11.698Z,25.80
2023-06-10T18:59:38.556Z,25.80
2023-06-10T19:02:06.519Z,25.80
2023-06-10T19:04:34.174Z,25.80
2023-06-10T19:07:01.252Z,25.60
2023-06-10T19:09:28.275Z,25.40
2023-06-10T19:11:55.248Z,25.20
2023-06-10T19:14:22.273Z,25.10
2023-06-10T19:16:49.389Z,24.90
2023-06-10T19:19:16.387Z,24.80
2023-06-10T19:21:43.211Z,24.60
2023-06-10T19:24:10.620Z,24.50
2023-06-10T19:26:40.162Z,24.40
2023-06-10T19:29:08.541Z,24.30
2023-06-10T19:31:35.563Z,24.30
2023-06-10T19:34:02.858Z,24.20
2023-06-10T19:36:29.690Z,24.10
2023-06-10T19:38:56.856Z,24.00
2023-06-10T19:41:24.515Z,23.90
2023-06-10T19:43:51.630Z,23.90
2023-06-10T19:46:21.501Z,23.70
2023-06-10T19:48:49.152Z,23.70
2023-06-10T19:51:18.641Z,23.70
2023-06-10T19:53:46.981Z,23.60
2023-06-10T19:56:19.644Z,23.50
2023-06-10T19:58:50.397Z,23.30
2023-06-10T20:01:17.575Z,23.30
2023-06-10T20:03:45.580Z,23.20
2023-06-10T20:06:12.826Z,23.20
2023-06-10T20:08:41.670Z,23.00
2023-06-10T20:11:08.898Z,23.00
2023-06-10T20:13:35.989Z,22.90
2023-06-10T20:16:03.236Z,22.90
2023-06-10T20:18:30.350Z,22.80
2023-06-10T20:20:57.436Z,22.80
2023-06-10T20:23:24.267Z,22.60
2023-06-10T20:25:51.306Z,22.60
2023-06-10T20:28:18.417Z,22.60
2023-06-10T20:30:45.523Z,22.40
2023-06-10T20:33:13.972Z,22.20
2023-06-10T20:35:41.132Z,22.20
2023-06-10T20:38:07.988Z,22.20
2023-06-10T20:40:34.814Z,22.30
2023-06-10T20:43:01.773Z,22.10
2023-06-10T20:45:28.971Z,22.10
2023-06-10T20:47:55.939Z,22.00
2023-06-10T20:50:23.283Z,22.00
2023-06-10T20:52:51.283Z,22.00
2023-06-10T20:55:18.160Z,21.90
2023-06-10T20:57:45.508Z,21.80
2023-06-10T21:00:12.894Z,21.80
2023-06-10T21:02:39.761Z,21.70
2023-06-10T21:05:07.566Z,21.70
2023-06-10T21:07:34.600Z,21.60
2023-06-10T21:10:01.454Z,21.60
2023-06-10T21:12:30.200Z,21.50
2023-06-10T21:14:57.832Z,21.40
2023-06-10T21:17:25.186Z,21.30
2023-06-10T21:19:52.218Z,21.20
2023-06-10T21:22:19.364Z,21.10
2023-06-10T21:24:47.702Z,21.10
2023-06-10T21:27:17.148Z,21.00
2023-06-10T21:29:44.516Z,21.00
2023-06-10T21:32:12.742Z,20.80
2023-06-10T21:34:39.760Z,20.90
2023-06-10T21:37:06.642Z,21.00
2023-06-10T21:39:33.603Z,20.90
2023-06-10T21:42:00.711Z,20.80
2023-06-10T21:44:27.914Z,20.70
2023-06-10T21:46:54.784Z,20.60
2023-06-10T21:49:21.790Z,20.60
2023-06-10T21:51:48.727Z,20.60
2023-06-10T21:54:15.688Z,20.60
2023-06-10T21:56:47.894Z,20.60
2023-06-10T21:59:15.232Z,20.60
2023-06-10T22:01:42.180Z,20.50
2023-06-10T22:04:09.319Z,20.40
2023-06-10T22:06:37.292Z,20.40
2023-06-10T22:09:04.570Z,20.40
2023-06-10T22:11:31.836Z,20.40
2023-06-10T22:13:58.916Z,20.40
2023-06-10T22:16:25.972Z,20.30
2023-06-10T22:18:53.020Z,20.30
2023-06-10T22:21:19.851Z,20.20
2023-06-10T22:23:46.732Z,20.10
2023-06-10T22:26:13.827Z,20.10
2023-06-10T22:28:40.774Z,20.00
2023-06-10T22:31:08.457Z,20.00
2023-06-10T22:33:35.595Z,19.90
2023-06-10T22:36:02.413Z,19.90
2023-06-10T22:38:29.348Z,19.90
2023-06-10T22:40:56.731Z,19.80
2023-06-10T22:43:23.551Z,19.80
2023-06-10T22:45:50.402Z,19.80
2023-06-10T22:48:17.548Z,19.80
2023-06-10T22:50:44.525Z,19.60
2023-06-10T22:53:11.468Z,19.60
2023-06-10T22:55:38.474Z,19.50
2023-06-10T22:58:05.593Z,19.50
2023-06-10T23:00:32.444Z,19.50
2023-06-10T23:02:59.584Z,19.40
2023-06-10T23:05:26.366Z,19.40
2023-06-10T23:07:53.416Z,19.40
2023-06-10T23:10:20.424Z,19.40
2023-06-10T23:12:47.333Z,19.30
2023-06-10T23:15:14.372Z,19.20
2023-06-10T23:17:46.344Z,19.30
2023-06-10T23:20:14.043Z,19.20
2023-06-10T23:22:41.192Z,19.10
2023-06-10T23:25:09.740Z,19.10
2023-06-10T23:27:37.043Z,19.10
2023-06-10T23:30:04.195Z,19.10
2023-06-10T23:32:32.392Z,19.10
2023-06-10T23:34:59.342Z,19.10
2023-06-10T23:37:26.817Z,19.00
2023-06-10T23:39:55.323Z,18.90
2023-06-10T23:42:24.113Z,18.90
2023-06-10T23:44:51.282Z,18.80
2023-06-10T23:47:18.366Z,18.80
2023-06-10T23:49:46.723Z,18.80
2023-06-10T23:52:14.910Z,18.80
2023-06-10T23:54:41.879Z,18.80
2023-06-10T23:57:08.911Z,18.80
2023-06-10T23:59:35.809Z,18.70
